sensor_id;sensor_type;location;lat;lon;timestamp;P1;durP1;ratioP1;P2;durP2;ratioP2
57249;SDS011;43102;52.014;-0.680;2023-07-31T00:00:01;10.30;;;5.40;;
57249;SDS011;43102;52.014;-0.680;2023-07-31T00:01:00;10.30;;;5.40;;
57249;SDS011;43102;52.014;-0.680;2023-07-31T00:02:00;10.30;;;5.40;;
57249;SDS011;43102;52.014;-0.680;2023-07-31T00:03:00;10.30;;;5.40;;
57249;SDS011;43102;52.014;-0.680;2023-07-31T00:04:00;10.30;;;5.40;;
57249;SDS011;43102;52.014;-0.680;2023-07-31T00:05:01;10.30;;;5.40;;
57249;SDS011;43102;52.014;-0.680;2023-07-31T00:06:00;10.30;;;5.40;;
57249;SDS011;43102;52.014;-0.680;2023-07-31T00:07:00;10.30;;;5.40;;
57249;SDS011;43102;52.014;-0.680;2023-07-31T00:08:00;9.00;;;4.60;;
57249;SDS011;43102;52.014;-0.680;2023-07-31T00:09:00;9.00;;;4.60;;
57249;SDS011;43102;52.014;-0.680;2023-07-31T00:10:01;9.00;;;4.60;;
57249;SDS011;43102;52.014;-0.680;2023-07-31T00:11:00;9.00;;;4.60;;
57249;SDS011;43102;52.014;-0.680;2023-07-31T00:12:02;9.00;;;4.60;;
57249;SDS011;43102;52.014;-0.680;2023-07-31T00:13:00;9.00;;;4.60;;
57249;SDS011;43102;52.014;-0.680;2023-07-31T00:14:00;9.00;;;4.60;;
57249;SDS011;43102;52.014;-0.680;2023-07-31T00:15:01;9.00;;;4.60;;
57249;SDS011;43102;52.014;-0.680;2023-07-31T00:16:00;9.00;;;4.60;;
57249;SDS011;43102;52.014;-0.680;2023-07-31T00:17:00;9.00;;;4.60;;
57249;SDS011;43102;52.014;-0.680;2023-07-31T00:18:01;9.00;;;4.60;;
57249;SDS011;43102;52.014;-0.680;2023-07-31T00:19:00;9.00;;;4.60;;
57249;SDS011;43102;52.014;-0.680;2023-07-31T00:20:00;9.00;;;4.60;;
57249;SDS011;43102;52.014;-0.680;2023-07-31T00:21:00;9.00;;;4.60;;
57249;SDS011;43102;52.014;-0.680;2023-07-31T00:22:00;9.00;;;4.60;;
57249;SDS011;43102;52.014;-0.680;2023-07-31T00:23:00;9.00;;;4.60;;
57249;SDS011;43102;52.014;-0.680;2023-07-31T00:24:00;9.00;;;4.60;;
57249;SDS011;43102;52.014;-0.680;2023-07-31T00:25:00;9.00;;;4.60;;
57249;SDS011;43102;52.014;-0.680;2023-07-31T00:26:00;9.00;;;4.60;;
57249;SDS011;43102;52.014;-0.680;2023-07-31T00:27:00;9.00;;;4.60;;
57249;SDS011;43102;52.014;-0.680;2023-07-31T00:28:00;9.00;;;4.60;;
57249;SDS011;43102;52.014;-0.680;2023-07-31T00:29:00;9.00;;;4.60;;
57249;SDS011;43102;52.014;-0.680;2023-07-31T00:30:00;9.00;;;4.60;;
57249;SDS011;43102;52.014;-0.680;2023-07-31T00:31:02;9.00;;;4.60;;
57249;SDS011;43102;52.014;-0.680;2023-07-31T00:32:00;9.00;;;4.60;;
57249;SDS011;43102;52.014;-0.680;2023-07-31T00:33:00;9.00;;;4.60;;
57249;SDS011;43102;52.014;-0.680;2023-07-31T00:34:00;9.00;;;4.60;;
57249;SDS011;43102;52.014;-0.680;2023-07-31T00:35:00;9.00;;;4.60;;
57249;SDS011;43102;52.014;-0.680;2023-07-31T00:36:00;9.00;;;4.60;;
57249;SDS011;43102;52.014;-0.680;2023-07-31T00:37:00;9.00;;;4.60;;
57249;SDS011;43102;52.014;-0.680;2023-07-31T00:38:00;9.50;;;3.50;;
57249;SDS011;43102;52.014;-0.680;2023-07-31T00:39:00;9.50;;;3.50;;
57249;SDS011;43102;52.014;-0.680;2023-07-31T00:40:00;9.50;;;3.50;;
57249;SDS011;43102;52.014;-0.680;2023-07-31T00:41:00;9.50;;;3.50;;
57249;SDS011;43102;52.014;-0.680;2023-07-31T00:42:00;9.50;;;3.50;;
57249;SDS011;43102;52.014;-0.680;2023-07-31T00:43:03;9.50;;;3.50;;
57249;SDS011;43102;52.014;-0.680;2023-07-31T00:44:00;9.50;;;3.50;;
57249;SDS011;43102;52.014;-0.680;2023-07-31T00:45:00;9.50;;;3.50;;
57249;SDS011;43102;52.014;-0.680;2023-07-31T00:46:00;9.50;;;3.50;;
57249;SDS011;43102;52.014;-0.680;2023-07-31T00:47:01;9.50;;;3.50;;
57249;SDS011;43102;52.014;-0.680;2023-07-31T00:48:01;9.50;;;3.50;;
57249;SDS011;43102;52.014;-0.680;2023-07-31T00:49:00;9.50;;;3.50;;
57249;SDS011;43102;52.014;-0.680;2023-07-31T00:50:00;9.50;;;3.50;;
57249;SDS011;43102;52.014;-0.680;2023-07-31T00:51:01;9.50;;;3.50;;
57249;SDS011;43102;52.014;-0.680;2023-07-31T00:52:02;9.50;;;3.50;;
57249;SDS011;43102;52.014;-0.680;2023-07-31T00:53:00;9.50;;;3.50;;
57249;SDS011;43102;52.014;-0.680;2023-07-31T00:54:00;9.50;;;3.50;;
57249;SDS011;43102;52.014;-0.680;2023-07-31T00:55:00;9.50;;;3.50;;
57249;SDS011;43102;52.014;-0.680;2023-07-31T00:56:00;9.50;;;3.50;;
57249;SDS011;43102;52.014;-0.680;2023-07-31T00:57:00;9.50;;;3.50;;
57249;SDS011;43102;52.014;-0.680;2023-07-31T00:58:00;9.50;;;3.50;;
57249;SDS011;43102;52.014;-0.680;2023-07-31T00:59:00;9.50;;;3.50;;
57249;SDS011;43102;52.014;-0.680;2023-07-31T01:00:00;9.50;;;3.50;;
57249;SDS011;43102;52.014;-0.680;2023-07-31T01:01:00;9.50;;;3.50;;
57249;SDS011;43102;52.014;-0.680;2023-07-31T01:02:01;9.50;;;3.50;;
57249;SDS011;43102;52.014;-0.680;2023-07-31T01:03:01;9.50;;;3.50;;
57249;SDS011;43102;52.014;-0.680;2023-07-31T01:04:00;9.50;;;3.50;;
57249;SDS011;43102;52.014;-0.680;2023-07-31T01:05:02;9.50;;;3.50;;
57249;SDS011;43102;52.014;-0.680;2023-07-31T01:06:35;9.50;;;3.50;;
57249;SDS011;43102;52.014;-0.680;2023-07-31T01:07:13;9.50;;;3.50;;
57249;SDS011;43102;52.014;-0.680;2023-07-31T01:08:08;3.50;;;2.40;;
57249;SDS011;43102;52.014;-0.680;2023-07-31T01:09:06;3.50;;;2.40;;
57249;SDS011;43102;52.014;-0.680;2023-07-31T01:10:20;3.50;;;2.40;;
57249;SDS011;43102;52.014;-0.680;2023-07-31T01:12:02;3.50;;;2.40;;
57249;SDS011;43102;52.014;-0.680;2023-07-31T01:13:01;3.50;;;2.40;;
57249;SDS011;43102;52.014;-0.680;2023-07-31T01:14:01;3.50;;;2.40;;
57249;SDS011;43102;52.014;-0.680;2023-07-31T01:15:06;3.50;;;2.40;;
57249;SDS011;43102;52.014;-0.680;2023-07-31T01:16:00;3.50;;;2.40;;
57249;SDS011;43102;52.014;-0.680;2023-07-31T01:17:00;3.50;;;2.40;;
57249;SDS011;43102;52.014;-0.680;2023-07-31T01:18:00;3.50;;;2.40;;
57249;SDS011;43102;52.014;-0.680;2023-07-31T01:19:00;3.50;;;2.40;;
57249;SDS011;43102;52.014;-0.680;2023-07-31T01:20:03;3.50;;;2.40;;
57249;SDS011;43102;52.014;-0.680;2023-07-31T01:21:10;3.50;;;2.40;;
57249;SDS011;43102;52.014;-0.680;2023-07-31T01:23:18;3.50;;;2.40;;
57249;SDS011;43102;52.014;-0.680;2023-07-31T01:27:23;3.50;;;2.40;;
57249;SDS011;43102;52.014;-0.680;2023-07-31T01:28:04;3.50;;;2.40;;
57249;SDS011;43102;52.014;-0.680;2023-07-31T01:29:05;3.50;;;2.40;;
57249;SDS011;43102;52.014;-0.680;2023-07-31T01:30:11;3.50;;;2.40;;
57249;SDS011;43102;52.014;-0.680;2023-07-31T01:31:02;3.50;;;2.40;;
57249;SDS011;43102;52.014;-0.680;2023-07-31T01:32:02;3.50;;;2.40;;
57249;SDS011;43102;52.014;-0.680;2023-07-31T01:33:03;3.50;;;2.40;;
57249;SDS011;43102;52.014;-0.680;2023-07-31T01:34:01;3.50;;;2.40;;
57249;SDS011;43102;52.014;-0.680;2023-07-31T01:35:01;3.50;;;2.40;;
57249;SDS011;43102;52.014;-0.680;2023-07-31T01:36:00;3.50;;;2.40;;
57249;SDS011;43102;52.014;-0.680;2023-07-31T01:37:00;3.50;;;2.40;;
57249;SDS011;43102;52.014;-0.680;2023-07-31T01:38:00;6.20;;;2.40;;
57249;SDS011;43102;52.014;-0.680;2023-07-31T01:39:01;6.20;;;2.40;;
57249;SDS011;43102;52.014;-0.680;2023-07-31T01:40:00;6.20;;;2.40;;
57249;SDS011;43102;52.014;-0.680;2023-07-31T01:41:00;6.20;;;2.40;;
57249;SDS011;43102;52.014;-0.680;2023-07-31T01:42:00;6.20;;;2.40;;
57249;SDS011;43102;52.014;-0.680;2023-07-31T01:43:00;6.20;;;2.40;;
57249;SDS011;43102;52.014;-0.680;2023-07-31T01:44:00;6.20;;;2.40;;
57249;SDS011;43102;52.014;-0.680;2023-07-31T01:45:00;6.20;;;2.40;;
57249;SDS011;43102;52.014;-0.680;2023-07-31T01:46:00;6.20;;;2.40;;
57249;SDS011;43102;52.014;-0.680;2023-07-31T01:47:00;6.20;;;2.40;;
57249;SDS011;43102;52.014;-0.680;2023-07-31T01:48:00;6.20;;;2.40;;
57249;SDS011;43102;52.014;-0.680;2023-07-31T01:49:00;6.20;;;2.40;;
57249;SDS011;43102;52.014;-0.680;2023-07-31T01:50:00;6.20;;;2.40;;
57249;SDS011;43102;52.014;-0.680;2023-07-31T01:51:01;6.20;;;2.40;;
57249;SDS011;43102;52.014;-0.680;2023-07-31T01:52:00;6.20;;;2.40;;
57249;SDS011;43102;52.014;-0.680;2023-07-31T01:53:00;6.20;;;2.40;;
57249;SDS011;43102;52.014;-0.680;2023-07-31T01:54:01;6.20;;;2.40;;
57249;SDS011;43102;52.014;-0.680;2023-07-31T01:55:00;6.20;;;2.40;;
57249;SDS011;43102;52.014;-0.680;2023-07-31T01:56:00;6.20;;;2.40;;
57249;SDS011;43102;52.014;-0.680;2023-07-31T01:57:00;6.20;;;2.40;;
57249;SDS011;43102;52.014;-0.680;2023-07-31T01:58:00;6.20;;;2.40;;
57249;SDS011;43102;52.014;-0.680;2023-07-31T01:59:00;6.20;;;2.40;;
57249;SDS011;43102;52.014;-0.680;2023-07-31T02:00:00;6.20;;;2.40;;
57249;SDS011;43102;52.014;-0.680;2023-07-31T02:01:00;6.20;;;2.40;;
57249;SDS011;43102;52.014;-0.680;2023-07-31T02:02:00;6.20;;;2.40;;
57249;SDS011;43102;52.014;-0.680;2023-07-31T02:03:00;6.20;;;2.40;;
57249;SDS011;43102;52.014;-0.680;2023-07-31T02:04:01;6.20;;;2.40;;
57249;SDS011;43102;52.014;-0.680;2023-07-31T02:05:01;6.20;;;2.40;;
57249;SDS011;43102;52.014;-0.680;2023-07-31T02:06:00;6.20;;;2.40;;
57249;SDS011;43102;52.014;-0.680;2023-07-31T02:07:00;6.20;;;2.40;;
57249;SDS011;43102;52.014;-0.680;2023-07-31T02:08:00;3.10;;;2.40;;
57249;SDS011;43102;52.014;-0.680;2023-07-31T02:09:00;3.10;;;2.40;;
57249;SDS011;43102;52.014;-0.680;2023-07-31T02:10:00;3.10;;;2.40;;
57249;SDS011;43102;52.014;-0.680;2023-07-31T02:11:00;3.10;;;2.40;;
57249;SDS011;43102;52.014;-0.680;2023-07-31T02:12:00;3.10;;;2.40;;
57249;SDS011;43102;52.014;-0.680;2023-07-31T02:13:00;3.10;;;2.40;;
57249;SDS011;43102;52.014;-0.680;2023-07-31T02:14:00;3.10;;;2.40;;
57249;SDS011;43102;52.014;-0.680;2023-07-31T02:15:00;3.10;;;2.40;;
57249;SDS011;43102;52.014;-0.680;2023-07-31T02:16:01;3.10;;;2.40;;
57249;SDS011;43102;52.014;-0.680;2023-07-31T02:17:01;3.10;;;2.40;;
57249;SDS011;43102;52.014;-0.680;2023-07-31T02:18:00;3.10;;;2.40;;
57249;SDS011;43102;52.014;-0.680;2023-07-31T02:19:00;3.10;;;2.40;;
57249;SDS011;43102;52.014;-0.680;2023-07-31T02:20:01;3.10;;;2.40;;
57249;SDS011;43102;52.014;-0.680;2023-07-31T02:21:00;3.10;;;2.40;;
57249;SDS011;43102;52.014;-0.680;2023-07-31T02:22:00;3.10;;;2.40;;
57249;SDS011;43102;52.014;-0.680;2023-07-31T02:23:00;3.10;;;2.40;;
57249;SDS011;43102;52.014;-0.680;2023-07-31T02:24:00;3.10;;;2.40;;
57249;SDS011;43102;52.014;-0.680;2023-07-31T02:25:00;3.10;;;2.40;;
57249;SDS011;43102;52.014;-0.680;2023-07-31T02:26:00;3.10;;;2.40;;
57249;SDS011;43102;52.014;-0.680;2023-07-31T02:27:00;3.10;;;2.40;;
57249;SDS011;43102;52.014;-0.680;2023-07-31T02:28:00;3.10;;;2.40;;
57249;SDS011;43102;52.014;-0.680;2023-07-31T02:29:00;3.10;;;2.40;;
57249;SDS011;43102;52.014;-0.680;2023-07-31T02:30:00;3.10;;;2.40;;
57249;SDS011;43102;52.014;-0.680;2023-07-31T02:31:01;3.10;;;2.40;;
57249;SDS011;43102;52.014;-0.680;2023-07-31T02:32:00;3.10;;;2.40;;
57249;SDS011;43102;52.014;-0.680;2023-07-31T02:33:00;3.10;;;2.40;;
57249;SDS011;43102;52.014;-0.680;2023-07-31T02:34:00;3.10;;;2.40;;
57249;SDS011;43102;52.014;-0.680;2023-07-31T02:35:00;3.10;;;2.40;;
57249;SDS011;43102;52.014;-0.680;2023-07-31T02:36:01;3.10;;;2.40;;
57249;SDS011;43102;52.014;-0.680;2023-07-31T02:37:00;3.10;;;2.40;;
57249;SDS011;43102;52.014;-0.680;2023-07-31T02:38:00;4.10;;;2.40;;
57249;SDS011;43102;52.014;-0.680;2023-07-31T02:39:00;4.10;;;2.40;;
57249;SDS011;43102;52.014;-0.680;2023-07-31T02:40:00;4.10;;;2.40;;
57249;SDS011;43102;52.014;-0.680;2023-07-31T02:41:00;4.10;;;2.40;;
57249;SDS011;43102;52.014;-0.680;2023-07-31T02:42:00;4.10;;;2.40;;
57249;SDS011;43102;52.014;-0.680;2023-07-31T02:43:00;4.10;;;2.40;;
57249;SDS011;43102;52.014;-0.680;2023-07-31T02:44:00;4.10;;;2.40;;
57249;SDS011;43102;52.014;-0.680;2023-07-31T02:45:00;4.10;;;2.40;;
57249;SDS011;43102;52.014;-0.680;2023-07-31T02:46:00;4.10;;;2.40;;
57249;SDS011;43102;52.014;-0.680;2023-07-31T02:47:00;4.10;;;2.40;;
57249;SDS011;43102;52.014;-0.680;2023-07-31T02:48:00;4.10;;;2.40;;
57249;SDS011;43102;52.014;-0.680;2023-07-31T02:49:00;4.10;;;2.40;;
57249;SDS011;43102;52.014;-0.680;2023-07-31T02:50:01;4.10;;;2.40;;
57249;SDS011;43102;52.014;-0.680;2023-07-31T02:51:00;4.10;;;2.40;;
57249;SDS011;43102;52.014;-0.680;2023-07-31T02:52:00;4.10;;;2.40;;
57249;SDS011;43102;52.014;-0.680;2023-07-31T02:53:00;4.10;;;2.40;;
57249;SDS011;43102;52.014;-0.680;2023-07-31T02:54:00;4.10;;;2.40;;
57249;SDS011;43102;52.014;-0.680;2023-07-31T02:55:00;4.10;;;2.40;;
57249;SDS011;43102;52.014;-0.680;2023-07-31T02:56:00;4.10;;;2.40;;
57249;SDS011;43102;52.014;-0.680;2023-07-31T02:57:00;4.10;;;2.40;;
57249;SDS011;43102;52.014;-0.680;2023-07-31T02:58:00;4.10;;;2.40;;
57249;SDS011;43102;52.014;-0.680;2023-07-31T02:59:00;4.10;;;2.40;;
57249;SDS011;43102;52.014;-0.680;2023-07-31T03:00:00;4.10;;;2.40;;
57249;SDS011;43102;52.014;-0.680;2023-07-31T03:01:00;4.10;;;2.40;;
57249;SDS011;43102;52.014;-0.680;2023-07-31T03:02:00;4.10;;;2.40;;
57249;SDS011;43102;52.014;-0.680;2023-07-31T03:03:00;4.10;;;2.40;;
57249;SDS011;43102;52.014;-0.680;2023-07-31T03:04:00;4.10;;;2.40;;
57249;SDS011;43102;52.014;-0.680;2023-07-31T03:05:01;4.10;;;2.40;;
57249;SDS011;43102;52.014;-0.680;2023-07-31T03:06:00;4.10;;;2.40;;
57249;SDS011;43102;52.014;-0.680;2023-07-31T03:07:00;4.10;;;2.40;;
57249;SDS011;43102;52.014;-0.680;2023-07-31T03:08:00;2.40;;;1.80;;
57249;SDS011;43102;52.014;-0.680;2023-07-31T03:09:00;2.40;;;1.80;;
57249;SDS011;43102;52.014;-0.680;2023-07-31T03:10:01;2.40;;;1.80;;
57249;SDS011;43102;52.014;-0.680;2023-07-31T03:11:00;2.40;;;1.80;;
57249;SDS011;43102;52.014;-0.680;2023-07-31T03:12:00;2.40;;;1.80;;
57249;SDS011;43102;52.014;-0.680;2023-07-31T03:13:00;2.40;;;1.80;;
57249;SDS011;43102;52.014;-0.680;2023-07-31T03:14:00;2.40;;;1.80;;
57249;SDS011;43102;52.014;-0.680;2023-07-31T03:15:00;2.40;;;1.80;;
57249;SDS011;43102;52.014;-0.680;2023-07-31T03:16:00;2.40;;;1.80;;
57249;SDS011;43102;52.014;-0.680;2023-07-31T03:17:00;2.40;;;1.80;;
57249;SDS011;43102;52.014;-0.680;2023-07-31T03:18:00;2.40;;;1.80;;
57249;SDS011;43102;52.014;-0.680;2023-07-31T03:19:00;2.40;;;1.80;;
57249;SDS011;43102;52.014;-0.680;2023-07-31T03:20:00;2.40;;;1.80;;
57249;SDS011;43102;52.014;-0.680;2023-07-31T03:21:00;2.40;;;1.80;;
57249;SDS011;43102;52.014;-0.680;2023-07-31T03:22:00;2.40;;;1.80;;
57249;SDS011;43102;52.014;-0.680;2023-07-31T03:23:00;2.40;;;1.80;;
57249;SDS011;43102;52.014;-0.680;2023-07-31T03:24:00;2.40;;;1.80;;
57249;SDS011;43102;52.014;-0.680;2023-07-31T03:25:01;2.40;;;1.80;;
57249;SDS011;43102;52.014;-0.680;2023-07-31T03:26:05;2.40;;;1.80;;
57249;SDS011;43102;52.014;-0.680;2023-07-31T03:27:00;2.40;;;1.80;;
57249;SDS011;43102;52.014;-0.680;2023-07-31T03:28:00;2.40;;;1.80;;
57249;SDS011;43102;52.014;-0.680;2023-07-31T03:29:00;2.40;;;1.80;;
57249;SDS011;43102;52.014;-0.680;2023-07-31T03:30:02;2.40;;;1.80;;
57249;SDS011;43102;52.014;-0.680;2023-07-31T03:31:00;2.40;;;1.80;;
57249;SDS011;43102;52.014;-0.680;2023-07-31T03:32:00;2.40;;;1.80;;
57249;SDS011;43102;52.014;-0.680;2023-07-31T03:33:00;2.40;;;1.80;;
57249;SDS011;43102;52.014;-0.680;2023-07-31T03:34:00;2.40;;;1.80;;
57249;SDS011;43102;52.014;-0.680;2023-07-31T03:35:00;2.40;;;1.80;;
57249;SDS011;43102;52.014;-0.680;2023-07-31T03:36:00;2.40;;;1.80;;
57249;SDS011;43102;52.014;-0.680;2023-07-31T03:37:00;2.40;;;1.80;;
57249;SDS011;43102;52.014;-0.680;2023-07-31T03:38:00;4.80;;;2.30;;
57249;SDS011;43102;52.014;-0.680;2023-07-31T03:39:00;4.80;;;2.30;;
57249;SDS011;43102;52.014;-0.680;2023-07-31T03:40:00;4.80;;;2.30;;
57249;SDS011;43102;52.014;-0.680;2023-07-31T03:41:00;4.80;;;2.30;;
57249;SDS011;43102;52.014;-0.680;2023-07-31T03:42:01;4.80;;;2.30;;
57249;SDS011;43102;52.014;-0.680;2023-07-31T03:43:00;4.80;;;2.30;;
57249;SDS011;43102;52.014;-0.680;2023-07-31T03:44:00;4.80;;;2.30;;
57249;SDS011;43102;52.014;-0.680;2023-07-31T03:45:00;4.80;;;2.30;;
57249;SDS011;43102;52.014;-0.680;2023-07-31T03:46:01;4.80;;;2.30;;
57249;SDS011;43102;52.014;-0.680;2023-07-31T03:47:00;4.80;;;2.30;;
57249;SDS011;43102;52.014;-0.680;2023-07-31T03:48:00;4.80;;;2.30;;
57249;SDS011;43102;52.014;-0.680;2023-07-31T03:49:00;4.80;;;2.30;;
57249;SDS011;43102;52.014;-0.680;2023-07-31T03:50:00;4.80;;;2.30;;
57249;SDS011;43102;52.014;-0.680;2023-07-31T03:51:00;4.80;;;2.30;;
57249;SDS011;43102;52.014;-0.680;2023-07-31T03:52:00;4.80;;;2.30;;
57249;SDS011;43102;52.014;-0.680;2023-07-31T03:53:00;4.80;;;2.30;;
57249;SDS011;43102;52.014;-0.680;2023-07-31T03:54:00;4.80;;;2.30;;
57249;SDS011;43102;52.014;-0.680;2023-07-31T03:55:00;4.80;;;2.30;;
57249;SDS011;43102;52.014;-0.680;2023-07-31T03:56:00;4.80;;;2.30;;
57249;SDS011;43102;52.014;-0.680;2023-07-31T03:57:00;4.80;;;2.30;;
57249;SDS011;43102;52.014;-0.680;2023-07-31T03:58:00;4.80;;;2.30;;
57249;SDS011;43102;52.014;-0.680;2023-07-31T03:59:00;4.80;;;2.30;;
57249;SDS011;43102;52.014;-0.680;2023-07-31T04:00:00;4.80;;;2.30;;
57249;SDS011;43102;52.014;-0.680;2023-07-31T04:01:00;4.80;;;2.30;;
57249;SDS011;43102;52.014;-0.680;2023-07-31T04:02:00;4.80;;;2.30;;
57249;SDS011;43102;52.014;-0.680;2023-07-31T04:03:00;4.80;;;2.30;;
57249;SDS011;43102;52.014;-0.680;2023-07-31T04:04:00;4.80;;;2.30;;
57249;SDS011;43102;52.014;-0.680;2023-07-31T04:05:00;4.80;;;2.30;;
57249;SDS011;43102;52.014;-0.680;2023-07-31T04:06:00;4.80;;;2.30;;
57249;SDS011;43102;52.014;-0.680;2023-07-31T04:07:00;4.80;;;2.30;;
57249;SDS011;43102;52.014;-0.680;2023-07-31T04:08:00;2.90;;;1.80;;
57249;SDS011;43102;52.014;-0.680;2023-07-31T04:09:02;2.90;;;1.80;;
57249;SDS011;43102;52.014;-0.680;2023-07-31T04:10:00;2.90;;;1.80;;
57249;SDS011;43102;52.014;-0.680;2023-07-31T04:11:00;2.90;;;1.80;;
57249;SDS011;43102;52.014;-0.680;2023-07-31T04:12:00;2.90;;;1.80;;
57249;SDS011;43102;52.014;-0.680;2023-07-31T04:13:00;2.90;;;1.80;;
57249;SDS011;43102;52.014;-0.680;2023-07-31T04:14:00;2.90;;;1.80;;
57249;SDS011;43102;52.014;-0.680;2023-07-31T04:15:00;2.90;;;1.80;;
57249;SDS011;43102;52.014;-0.680;2023-07-31T04:16:00;2.90;;;1.80;;
57249;SDS011;43102;52.014;-0.680;2023-07-31T04:17:00;2.90;;;1.80;;
57249;SDS011;43102;52.014;-0.680;2023-07-31T04:18:00;2.90;;;1.80;;
57249;SDS011;43102;52.014;-0.680;2023-07-31T04:19:00;2.90;;;1.80;;
57249;SDS011;43102;52.014;-0.680;2023-07-31T04:20:00;2.90;;;1.80;;
57249;SDS011;43102;52.014;-0.680;2023-07-31T04:21:02;2.90;;;1.80;;
57249;SDS011;43102;52.014;-0.680;2023-07-31T04:22:00;2.90;;;1.80;;
57249;SDS011;43102;52.014;-0.680;2023-07-31T04:23:00;2.90;;;1.80;;
57249;SDS011;43102;52.014;-0.680;2023-07-31T04:24:00;2.90;;;1.80;;
57249;SDS011;43102;52.014;-0.680;2023-07-31T04:25:00;2.90;;;1.80;;
57249;SDS011;43102;52.014;-0.680;2023-07-31T04:26:00;2.90;;;1.80;;
57249;SDS011;43102;52.014;-0.680;2023-07-31T04:27:00;2.90;;;1.80;;
57249;SDS011;43102;52.014;-0.680;2023-07-31T04:28:01;2.90;;;1.80;;
57249;SDS011;43102;52.014;-0.680;2023-07-31T04:29:00;2.90;;;1.80;;
57249;SDS011;43102;52.014;-0.680;2023-07-31T04:30:00;2.90;;;1.80;;
57249;SDS011;43102;52.014;-0.680;2023-07-31T04:31:00;2.90;;;1.80;;
57249;SDS011;43102;52.014;-0.680;2023-07-31T04:32:00;2.90;;;1.80;;
57249;SDS011;43102;52.014;-0.680;2023-07-31T04:33:00;2.90;;;1.80;;
57249;SDS011;43102;52.014;-0.680;2023-07-31T04:34:00;2.90;;;1.80;;
57249;SDS011;43102;52.014;-0.680;2023-07-31T04:35:01;2.90;;;1.80;;
57249;SDS011;43102;52.014;-0.680;2023-07-31T04:36:00;2.90;;;1.80;;
57249;SDS011;43102;52.014;-0.680;2023-07-31T04:37:00;2.90;;;1.80;;
57249;SDS011;43102;52.014;-0.680;2023-07-31T04:38:00;2.40;;;1.70;;
57249;SDS011;43102;52.014;-0.680;2023-07-31T04:39:01;2.40;;;1.70;;
57249;SDS011;43102;52.014;-0.680;2023-07-31T04:40:00;2.40;;;1.70;;
57249;SDS011;43102;52.014;-0.680;2023-07-31T04:41:00;2.40;;;1.70;;
57249;SDS011;43102;52.014;-0.680;2023-07-31T04:42:00;2.40;;;1.70;;
57249;SDS011;43102;52.014;-0.680;2023-07-31T04:43:00;2.40;;;1.70;;
57249;SDS011;43102;52.014;-0.680;2023-07-31T04:44:01;2.40;;;1.70;;
57249;SDS011;43102;52.014;-0.680;2023-07-31T04:45:00;2.40;;;1.70;;
57249;SDS011;43102;52.014;-0.680;2023-07-31T04:46:00;2.40;;;1.70;;
57249;SDS011;43102;52.014;-0.680;2023-07-31T04:47:02;2.40;;;1.70;;
57249;SDS011;43102;52.014;-0.680;2023-07-31T04:48:00;2.40;;;1.70;;
57249;SDS011;43102;52.014;-0.680;2023-07-31T04:49:00;2.40;;;1.70;;
57249;SDS011;43102;52.014;-0.680;2023-07-31T04:50:00;2.40;;;1.70;;
57249;SDS011;43102;52.014;-0.680;2023-07-31T04:51:00;2.40;;;1.70;;
57249;SDS011;43102;52.014;-0.680;2023-07-31T04:52:00;2.40;;;1.70;;
57249;SDS011;43102;52.014;-0.680;2023-07-31T04:53:00;2.40;;;1.70;;
57249;SDS011;43102;52.014;-0.680;2023-07-31T04:54:00;2.40;;;1.70;;
57249;SDS011;43102;52.014;-0.680;2023-07-31T04:55:00;2.40;;;1.70;;
57249;SDS011;43102;52.014;-0.680;2023-07-31T04:56:01;2.40;;;1.70;;
57249;SDS011;43102;52.014;-0.680;2023-07-31T04:57:00;2.40;;;1.70;;
57249;SDS011;43102;52.014;-0.680;2023-07-31T04:58:00;2.40;;;1.70;;
57249;SDS011;43102;52.014;-0.680;2023-07-31T04:59:00;2.40;;;1.70;;
57249;SDS011;43102;52.014;-0.680;2023-07-31T05:00:00;2.40;;;1.70;;
57249;SDS011;43102;52.014;-0.680;2023-07-31T05:01:00;2.40;;;1.70;;
57249;SDS011;43102;52.014;-0.680;2023-07-31T05:02:00;2.40;;;1.70;;
57249;SDS011;43102;52.014;-0.680;2023-07-31T05:03:00;2.40;;;1.70;;
57249;SDS011;43102;52.014;-0.680;2023-07-31T05:04:00;2.40;;;1.70;;
57249;SDS011;43102;52.014;-0.680;2023-07-31T05:05:00;2.40;;;1.70;;
57249;SDS011;43102;52.014;-0.680;2023-07-31T05:06:00;2.40;;;1.70;;
57249;SDS011;43102;52.014;-0.680;2023-07-31T05:07:00;2.40;;;1.70;;
57249;SDS011;43102;52.014;-0.680;2023-07-31T05:08:01;2.50;;;1.40;;
57249;SDS011;43102;52.014;-0.680;2023-07-31T05:09:00;2.50;;;1.40;;
57249;SDS011;43102;52.014;-0.680;2023-07-31T05:10:00;2.50;;;1.40;;
57249;SDS011;43102;52.014;-0.680;2023-07-31T05:11:01;2.50;;;1.40;;
57249;SDS011;43102;52.014;-0.680;2023-07-31T05:12:00;2.50;;;1.40;;
57249;SDS011;43102;52.014;-0.680;2023-07-31T05:13:00;2.50;;;1.40;;
57249;SDS011;43102;52.014;-0.680;2023-07-31T05:14:01;2.50;;;1.40;;
57249;SDS011;43102;52.014;-0.680;2023-07-31T05:15:00;2.50;;;1.40;;
57249;SDS011;43102;52.014;-0.680;2023-07-31T05:16:03;2.50;;;1.40;;
57249;SDS011;43102;52.014;-0.680;2023-07-31T05:17:00;2.50;;;1.40;;
57249;SDS011;43102;52.014;-0.680;2023-07-31T05:18:00;2.50;;;1.40;;
57249;SDS011;43102;52.014;-0.680;2023-07-31T05:19:00;2.50;;;1.40;;
57249;SDS011;43102;52.014;-0.680;2023-07-31T05:20:00;2.50;;;1.40;;
57249;SDS011;43102;52.014;-0.680;2023-07-31T05:21:00;2.50;;;1.40;;
57249;SDS011;43102;52.014;-0.680;2023-07-31T05:22:00;2.50;;;1.40;;
57249;SDS011;43102;52.014;-0.680;2023-07-31T05:23:00;2.50;;;1.40;;
57249;SDS011;43102;52.014;-0.680;2023-07-31T05:24:00;2.50;;;1.40;;
57249;SDS011;43102;52.014;-0.680;2023-07-31T05:25:00;2.50;;;1.40;;
57249;SDS011;43102;52.014;-0.680;2023-07-31T05:26:09;2.50;;;1.40;;
57249;SDS011;43102;52.014;-0.680;2023-07-31T05:27:00;2.50;;;1.40;;
57249;SDS011;43102;52.014;-0.680;2023-07-31T05:28:00;2.50;;;1.40;;
57249;SDS011;43102;52.014;-0.680;2023-07-31T05:29:00;2.50;;;1.40;;
57249;SDS011;43102;52.014;-0.680;2023-07-31T05:30:00;2.50;;;1.40;;
57249;SDS011;43102;52.014;-0.680;2023-07-31T05:31:01;2.50;;;1.40;;
57249;SDS011;43102;52.014;-0.680;2023-07-31T05:32:00;2.50;;;1.40;;
57249;SDS011;43102;52.014;-0.680;2023-07-31T05:33:00;2.50;;;1.40;;
57249;SDS011;43102;52.014;-0.680;2023-07-31T05:34:00;2.50;;;1.40;;
57249;SDS011;43102;52.014;-0.680;2023-07-31T05:35:00;2.50;;;1.40;;
57249;SDS011;43102;52.014;-0.680;2023-07-31T05:36:00;2.50;;;1.40;;
57249;SDS011;43102;52.014;-0.680;2023-07-31T05:37:00;2.50;;;1.40;;
57249;SDS011;43102;52.014;-0.680;2023-07-31T05:38:00;3.50;;;2.20;;
57249;SDS011;43102;52.014;-0.680;2023-07-31T05:39:06;3.50;;;2.20;;
57249;SDS011;43102;52.014;-0.680;2023-07-31T05:40:00;3.50;;;2.20;;
57249;SDS011;43102;52.014;-0.680;2023-07-31T05:41:00;3.50;;;2.20;;
57249;SDS011;43102;52.014;-0.680;2023-07-31T05:42:00;3.50;;;2.20;;
57249;SDS011;43102;52.014;-0.680;2023-07-31T05:43:00;3.50;;;2.20;;
57249;SDS011;43102;52.014;-0.680;2023-07-31T05:44:00;3.50;;;2.20;;
57249;SDS011;43102;52.014;-0.680;2023-07-31T05:45:00;3.50;;;2.20;;
57249;SDS011;43102;52.014;-0.680;2023-07-31T05:46:01;3.50;;;2.20;;
57249;SDS011;43102;52.014;-0.680;2023-07-31T05:47:00;3.50;;;2.20;;
57249;SDS011;43102;52.014;-0.680;2023-07-31T05:48:00;3.50;;;2.20;;
57249;SDS011;43102;52.014;-0.680;2023-07-31T05:49:00;3.50;;;2.20;;
57249;SDS011;43102;52.014;-0.680;2023-07-31T05:50:00;3.50;;;2.20;;
57249;SDS011;43102;52.014;-0.680;2023-07-31T05:51:00;3.50;;;2.20;;
57249;SDS011;43102;52.014;-0.680;2023-07-31T05:52:00;3.50;;;2.20;;
57249;SDS011;43102;52.014;-0.680;2023-07-31T05:53:00;3.50;;;2.20;;
57249;SDS011;43102;52.014;-0.680;2023-07-31T05:54:00;3.50;;;2.20;;
57249;SDS011;43102;52.014;-0.680;2023-07-31T05:55:01;3.50;;;2.20;;
57249;SDS011;43102;52.014;-0.680;2023-07-31T05:56:00;3.50;;;2.20;;
57249;SDS011;43102;52.014;-0.680;2023-07-31T05:57:00;3.50;;;2.20;;
57249;SDS011;43102;52.014;-0.680;2023-07-31T05:58:01;3.50;;;2.20;;
57249;SDS011;43102;52.014;-0.680;2023-07-31T05:59:00;3.50;;;2.20;;
57249;SDS011;43102;52.014;-0.680;2023-07-31T06:00:00;3.50;;;2.20;;